sensor_id;sensor_type;location;lat;lon;timestamp;P1;durP1;ratioP1;P2;durP2;ratioP2
3916;SDS011;1973;50.518;7.318;2022-08-05T00:01:21;8.43;;;5.70;;
3916;SDS011;1973;50.518;7.318;2022-08-05T00:03:54;8.27;;;5.30;;
3916;SDS011;1973;50.518;7.318;2022-08-05T00:06:22;8.10;;;5.40;;
3916;SDS011;1973;50.518;7.318;2022-08-05T00:08:58;8.00;;;5.30;;
3916;SDS011;1973;50.518;7.318;2022-08-05T00:11:26;11.67;;;6.10;;
3916;SDS011;1973;50.518;7.318;2022-08-05T00:14:00;8.20;;;5.70;;
3916;SDS011;1973;50.518;7.318;2022-08-05T00:16:38;8.20;;;4.87;;
3916;SDS011;1973;50.518;7.318;2022-08-05T00:19:18;8.93;;;5.80;;
3916;SDS011;1973;50.518;7.318;2022-08-05T00:21:47;9.20;;;6.13;;
3916;SDS011;1973;50.518;7.318;2022-08-05T00:24:14;5.90;;;5.10;;
3916;SDS011;1973;50.518;7.318;2022-08-05T00:26:49;9.70;;;5.90;;
3916;SDS011;1973;50.518;7.318;2022-08-05T00:29:18;7.90;;;5.40;;
3916;SDS011;1973;50.518;7.318;2022-08-05T00:31:48;9.47;;;5.47;;
3916;SDS011;1973;50.518;7.318;2022-08-05T00:34:34;10.10;;;6.13;;
3916;SDS011;1973;50.518;7.318;2022-08-05T00:37:21;7.50;;;6.07;;
3916;SDS011;1973;50.518;7.318;2022-08-05T00:39:47;6.07;;;5.47;;
3916;SDS011;1973;50.518;7.318;2022-08-05T00:42:33;9.17;;;5.80;;
3916;SDS011;1973;50.518;7.318;2022-08-05T00:45:02;8.10;;;5.47;;
3916;SDS011;1973;50.518;7.318;2022-08-05T00:47:33;8.47;;;5.70;;
3916;SDS011;1973;50.518;7.318;2022-08-05T00:50:20;7.57;;;5.97;;
3916;SDS011;1973;50.518;7.318;2022-08-05T00:52:50;10.43;;;5.53;;
3916;SDS011;1973;50.518;7.318;2022-08-05T00:55:19;16.30;;;5.90;;
3916;SDS011;1973;50.518;7.318;2022-08-05T00:57:47;9.80;;;5.83;;
3916;SDS011;1973;50.518;7.318;2022-08-05T01:00:25;6.53;;;5.83;;
3916;SDS011;1973;50.518;7.318;2022-08-05T01:02:53;10.63;;;5.93;;
3916;SDS011;1973;50.518;7.318;2022-08-05T01:05:20;8.47;;;5.60;;
3916;SDS011;1973;50.518;7.318;2022-08-05T01:07:47;9.50;;;6.67;;
3916;SDS011;1973;50.518;7.318;2022-08-05T01:10:47;7.93;;;5.60;;
3916;SDS011;1973;50.518;7.318;2022-08-05T01:16:25;8.03;;;6.50;;
3916;SDS011;1973;50.518;7.318;2022-08-05T01:21:51;7.30;;;5.60;;
3916;SDS011;1973;50.518;7.318;2022-08-05T01:24:57;6.23;;;5.53;;
3916;SDS011;1973;50.518;7.318;2022-08-05T01:30:21;6.90;;;5.17;;
3916;SDS011;1973;50.518;7.318;2022-08-05T01:33:00;11.37;;;6.40;;
3916;SDS011;1973;50.518;7.318;2022-08-05T01:35:34;6.70;;;5.70;;
3916;SDS011;1973;50.518;7.318;2022-08-05T01:38:18;6.90;;;6.20;;
3916;SDS011;1973;50.518;7.318;2022-08-05T01:40:54;10.90;;;6.60;;
3916;SDS011;1973;50.518;7.318;2022-08-05T01:43:24;11.80;;;6.10;;
3916;SDS011;1973;50.518;7.318;2022-08-05T01:45:53;6.43;;;5.63;;
3916;SDS011;1973;50.518;7.318;2022-08-05T01:48:22;8.37;;;6.67;;
3916;SDS011;1973;50.518;7.318;2022-08-05T01:50:52;7.07;;;5.63;;
3916;SDS011;1973;50.518;7.318;2022-08-05T01:53:21;7.10;;;5.90;;
3916;SDS011;1973;50.518;7.318;2022-08-05T01:56:09;11.33;;;6.17;;
3916;SDS011;1973;50.518;7.318;2022-08-05T01:58:58;7.23;;;5.70;;
3916;SDS011;1973;50.518;7.318;2022-08-05T02:01:29;9.07;;;6.77;;
3916;SDS011;1973;50.518;7.318;2022-08-05T02:04:05;10.70;;;5.90;;
3916;SDS011;1973;50.518;7.318;2022-08-05T02:06:35;7.67;;;5.83;;
3916;SDS011;1973;50.518;7.318;2022-08-05T02:09:04;8.20;;;5.53;;
3916;SDS011;1973;50.518;7.318;2022-08-05T02:11:34;6.43;;;5.73;;
3916;SDS011;1973;50.518;7.318;2022-08-05T02:14:19;6.50;;;5.80;;
3916;SDS011;1973;50.518;7.318;2022-08-05T02:17:03;7.83;;;6.13;;
3916;SDS011;1973;50.518;7.318;2022-08-05T02:19:43;6.40;;;5.80;;
3916;SDS011;1973;50.518;7.318;2022-08-05T02:22:15;8.87;;;6.50;;
3916;SDS011;1973;50.518;7.318;2022-08-05T02:24:57;7.90;;;6.10;;
3916;SDS011;1973;50.518;7.318;2022-08-05T02:27:29;10.37;;;6.10;;
3916;SDS011;1973;50.518;7.318;2022-08-05T02:30:18;6.70;;;6.00;;
3916;SDS011;1973;50.518;7.318;2022-08-05T02:32:47;6.70;;;5.83;;
3916;SDS011;1973;50.518;7.318;2022-08-05T02:35:20;8.33;;;7.20;;
3916;SDS011;1973;50.518;7.318;2022-08-05T02:37:53;9.07;;;7.70;;
3916;SDS011;1973;50.518;7.318;2022-08-05T02:40:25;8.57;;;7.67;;
3916;SDS011;1973;50.518;7.318;2022-08-05T02:42:52;9.47;;;8.43;;
3916;SDS011;1973;50.518;7.318;2022-08-05T02:45:21;9.83;;;7.27;;
3916;SDS011;1973;50.518;7.318;2022-08-05T02:47:51;13.13;;;7.27;;
3916;SDS011;1973;50.518;7.318;2022-08-05T02:50:38;10.57;;;7.47;;
3916;SDS011;1973;50.518;7.318;2022-08-05T02:53:09;9.00;;;7.47;;
3916;SDS011;1973;50.518;7.318;2022-08-05T02:55:41;8.93;;;7.17;;
3916;SDS011;1973;50.518;7.318;2022-08-05T02:58:20;10.53;;;7.20;;
3916;SDS011;1973;50.518;7.318;2022-08-05T03:00:52;9.10;;;7.40;;
3916;SDS011;1973;50.518;7.318;2022-08-05T03:03:20;13.00;;;7.10;;
3916;SDS011;1973;50.518;7.318;2022-08-05T03:05:48;8.00;;;5.93;;
3916;SDS011;1973;50.518;7.318;2022-08-05T03:08:36;10.30;;;7.47;;
3916;SDS011;1973;50.518;7.318;2022-08-05T03:11:21;11.20;;;6.83;;
3916;SDS011;1973;50.518;7.318;2022-08-05T03:14:09;8.60;;;6.80;;
3916;SDS011;1973;50.518;7.318;2022-08-05T03:16:39;20.00;;;16.40;;
3916;SDS011;1973;50.518;7.318;2022-08-05T03:19:06;14.07;;;9.33;;
3916;SDS011;1973;50.518;7.318;2022-08-05T03:21:53;10.93;;;8.83;;
3916;SDS011;1973;50.518;7.318;2022-08-05T03:24:19;12.23;;;8.33;;
3916;SDS011;1973;50.518;7.318;2022-08-05T03:26:56;8.50;;;7.70;;
3916;SDS011;1973;50.518;7.318;2022-08-05T03:29:23;11.97;;;7.97;;
3916;SDS011;1973;50.518;7.318;2022-08-05T03:32:10;8.40;;;7.27;;
3916;SDS011;1973;50.518;7.318;2022-08-05T03:34:39;13.97;;;9.47;;
3916;SDS011;1973;50.518;7.318;2022-08-05T03:37:07;14.07;;;8.57;;
3916;SDS011;1973;50.518;7.318;2022-08-05T03:39:35;12.30;;;9.60;;
3916;SDS011;1973;50.518;7.318;2022-08-05T03:42:21;11.00;;;9.40;;
3916;SDS011;1973;50.518;7.318;2022-08-05T03:44:52;13.80;;;8.77;;
3916;SDS011;1973;50.518;7.318;2022-08-05T03:47:18;9.40;;;8.30;;
3916;SDS011;1973;50.518;7.318;2022-08-05T03:49:45;12.70;;;8.80;;
3916;SDS011;1973;50.518;7.318;2022-08-05T03:52:18;10.10;;;8.23;;
3916;SDS011;1973;50.518;7.318;2022-08-05T03:55:10;9.37;;;7.87;;
3916;SDS011;1973;50.518;7.318;2022-08-05T03:58:03;11.70;;;7.70;;
3916;SDS011;1973;50.518;7.318;2022-08-05T04:00:36;10.83;;;8.10;;
3916;SDS011;1973;50.518;7.318;2022-08-05T04:03:07;12.90;;;8.47;;
3916;SDS011;1973;50.518;7.318;2022-08-05T04:05:53;9.93;;;8.77;;
3916;SDS011;1973;50.518;7.318;2022-08-05T04:08:22;10.97;;;9.20;;
3916;SDS011;1973;50.518;7.318;2022-08-05T04:11:02;10.33;;;9.10;;
3916;SDS011;1973;50.518;7.318;2022-08-05T04:13:30;14.10;;;8.97;;
3916;SDS011;1973;50.518;7.318;2022-08-05T04:16:15;12.20;;;9.13;;
3916;SDS011;1973;50.518;7.318;2022-08-05T04:18:49;10.83;;;9.40;;
3916;SDS011;1973;50.518;7.318;2022-08-05T04:21:19;11.50;;;9.40;;
3916;SDS011;1973;50.518;7.318;2022-08-05T04:24:06;11.00;;;9.40;;
3916;SDS011;1973;50.518;7.318;2022-08-05T04:26:44;16.83;;;9.50;;
3916;SDS011;1973;50.518;7.318;2022-08-05T04:29:11;11.63;;;10.13;;
3916;SDS011;1973;50.518;7.318;2022-08-05T04:31:39;10.80;;;9.70;;
3916;SDS011;1973;50.518;7.318;2022-08-05T04:34:05;12.03;;;9.30;;
3916;SDS011;1973;50.518;7.318;2022-08-05T04:36:52;12.07;;;10.27;;
3916;SDS011;1973;50.518;7.318;2022-08-05T04:39:19;12.40;;;10.20;;
3916;SDS011;1973;50.518;7.318;2022-08-05T04:41:47;11.23;;;10.03;;
3916;SDS011;1973;50.518;7.318;2022-08-05T04:44:16;12.10;;;10.87;;
3916;SDS011;1973;50.518;7.318;2022-08-05T04:46:54;16.70;;;10.90;;
3916;SDS011;1973;50.518;7.318;2022-08-05T04:49:21;14.03;;;11.90;;
3916;SDS011;1973;50.518;7.318;2022-08-05T04:52:04;12.20;;;11.00;;
3916;SDS011;1973;50.518;7.318;2022-08-05T04:54:32;10.97;;;9.77;;
3916;SDS011;1973;50.518;7.318;2022-08-05T04:56:59;12.07;;;10.80;;
3916;SDS011;1973;50.518;7.318;2022-08-05T04:59:26;11.80;;;10.60;;
3916;SDS011;1973;50.518;7.318;2022-08-05T05:02:04;10.70;;;9.60;;
3916;SDS011;1973;50.518;7.318;2022-08-05T05:04:51;12.20;;;9.40;;
3916;SDS011;1973;50.518;7.318;2022-08-05T05:07:27;11.13;;;9.97;;
3916;SDS011;1973;50.518;7.318;2022-08-05T05:09:58;13.70;;;10.87;;
3916;SDS011;1973;50.518;7.318;2022-08-05T05:12:27;14.43;;;12.30;;
3916;SDS011;1973;50.518;7.318;2022-08-05T05:14:54;13.10;;;11.10;;
3916;SDS011;1973;50.518;7.318;2022-08-05T05:17:20;12.23;;;11.03;;
3916;SDS011;1973;50.518;7.318;2022-08-05T05:19:53;14.03;;;12.10;;
3916;SDS011;1973;50.518;7.318;2022-08-05T05:22:23;16.17;;;11.10;;
3916;SDS011;1973;50.518;7.318;2022-08-05T05:24:55;13.40;;;12.00;;
3916;SDS011;1973;50.518;7.318;2022-08-05T05:27:26;12.03;;;10.80;;
3916;SDS011;1973;50.518;7.318;2022-08-05T05:30:12;13.20;;;11.40;;
3916;SDS011;1973;50.518;7.318;2022-08-05T05:32:53;12.23;;;10.97;;
3916;SDS011;1973;50.518;7.318;2022-08-05T05:35:21;16.30;;;11.67;;
3916;SDS011;1973;50.518;7.318;2022-08-05T05:37:52;14.70;;;10.83;;
3916;SDS011;1973;50.518;7.318;2022-08-05T05:40:26;18.00;;;12.90;;
3916;SDS011;1973;50.518;7.318;2022-08-05T05:42:53;15.87;;;11.20;;
3916;SDS011;1973;50.518;7.318;2022-08-05T05:45:21;14.67;;;12.03;;
3916;SDS011;1973;50.518;7.318;2022-08-05T05:47:49;13.80;;;10.93;;
3916;SDS011;1973;50.518;7.318;2022-08-05T05:50:33;13.60;;;11.17;;
3916;SDS011;1973;50.518;7.318;2022-08-05T05:53:10;12.90;;;10.77;;
3916;SDS011;1973;50.518;7.318;2022-08-05T05:55:47;14.90;;;10.77;;
3916;SDS011;1973;50.518;7.318;2022-08-05T05:58:26;13.70;;;12.37;;
3916;SDS011;1973;50.518;7.318;2022-08-05T06:00:57;14.10;;;12.60;;
3916;SDS011;1973;50.518;7.318;2022-08-05T06:03:38;16.20;;;13.13;;
3916;SDS011;1973;50.518;7.318;2022-08-05T06:06:25;14.90;;;13.30;;
3916;SDS011;1973;50.518;7.318;2022-08-05T06:08:56;15.67;;;13.70;;
3916;SDS011;1973;50.518;7.318;2022-08-05T06:11:23;15.33;;;13.70;;
3916;SDS011;1973;50.518;7.318;2022-08-05T06:13:51;13.30;;;11.90;;
3916;SDS011;1973;50.518;7.318;2022-08-05T06:16:20;13.13;;;11.83;;
3916;SDS011;1973;50.518;7.318;2022-08-05T06:18:57;15.33;;;13.77;;
3916;SDS011;1973;50.518;7.318;2022-08-05T06:21:27;14.97;;;12.17;;
3916;SDS011;1973;50.518;7.318;2022-08-05T06:24:03;13.70;;;12.40;;
3916;SDS011;1973;50.518;7.318;2022-08-05T06:26:37;14.90;;;12.63;;
3916;SDS011;1973;50.518;7.318;2022-08-05T06:29:04;13.60;;;12.10;;
3916;SDS011;1973;50.518;7.318;2022-08-05T06:31:51;13.13;;;11.73;;
3916;SDS011;1973;50.518;7.318;2022-08-05T06:34:18;13.90;;;12.60;;
3916;SDS011;1973;50.518;7.318;2022-08-05T06:36:45;14.00;;;11.97;;
3916;SDS011;1973;50.518;7.318;2022-08-05T06:39:24;17.50;;;13.50;;
3916;SDS011;1973;50.518;7.318;2022-08-05T06:41:53;15.13;;;13.23;;
3916;SDS011;1973;50.518;7.318;2022-08-05T06:44:23;16.50;;;15.00;;
3916;SDS011;1973;50.518;7.318;2022-08-05T06:46:51;16.70;;;15.10;;
3916;SDS011;1973;50.518;7.318;2022-08-05T06:49:19;14.33;;;12.93;;
3916;SDS011;1973;50.518;7.318;2022-08-05T06:52:06;16.47;;;14.77;;
3916;SDS011;1973;50.518;7.318;2022-08-05T06:54:53;17.10;;;13.37;;
3916;SDS011;1973;50.518;7.318;2022-08-05T06:57:19;14.03;;;12.73;;
3916;SDS011;1973;50.518;7.318;2022-08-05T07:00:06;13.90;;;12.47;;
3916;SDS011;1973;50.518;7.318;2022-08-05T07:02:44;12.97;;;11.50;;
3916;SDS011;1973;50.518;7.318;2022-08-05T07:05:18;13.23;;;12.00;;
3916;SDS011;1973;50.518;7.318;2022-08-05T07:07:57;16.27;;;12.77;;
3916;SDS011;1973;50.518;7.318;2022-08-05T07:10:24;14.83;;;13.17;;
3916;SDS011;1973;50.518;7.318;2022-08-05T07:12:57;16.20;;;14.50;;
3916;SDS011;1973;50.518;7.318;2022-08-05T07:16:03;16.47;;;14.73;;
3916;SDS011;1973;50.518;7.318;2022-08-05T07:19:08;17.10;;;13.67;;
3916;SDS011;1973;50.518;7.318;2022-08-05T07:21:34;14.67;;;13.13;;
3916;SDS011;1973;50.518;7.318;2022-08-05T07:24:21;14.27;;;12.83;;
3916;SDS011;1973;50.518;7.318;2022-08-05T07:26:53;14.90;;;13.30;;
3916;SDS011;1973;50.518;7.318;2022-08-05T07:29:20;13.53;;;12.20;;
3916;SDS011;1973;50.518;7.318;2022-08-05T07:32:06;15.13;;;12.60;;
3916;SDS011;1973;50.518;7.318;2022-08-05T07:34:33;14.50;;;12.47;;
3916;SDS011;1973;50.518;7.318;2022-08-05T07:37:07;14.87;;;13.50;;
3916;SDS011;1973;50.518;7.318;2022-08-05T07:39:36;15.73;;;13.90;;
3916;SDS011;1973;50.518;7.318;2022-08-05T07:42:23;14.23;;;12.83;;
3916;SDS011;1973;50.518;7.318;2022-08-05T07:45:01;17.00;;;14.53;;
3916;SDS011;1973;50.518;7.318;2022-08-05T07:47:34;18.83;;;14.60;;
3916;SDS011;1973;50.518;7.318;2022-08-05T07:50:08;15.63;;;14.13;;
3916;SDS011;1973;50.518;7.318;2022-08-05T07:52:38;15.97;;;14.40;;
3916;SDS011;1973;50.518;7.318;2022-08-05T07:55:07;17.13;;;14.70;;
3916;SDS011;1973;50.518;7.318;2022-08-05T07:57:53;16.53;;;14.90;;
3916;SDS011;1973;50.518;7.318;2022-08-05T08:00:28;17.60;;;15.80;;
3916;SDS011;1973;50.518;7.318;2022-08-05T08:02:54;17.73;;;16.03;;
3916;SDS011;1973;50.518;7.318;2022-08-05T08:05:41;17.73;;;15.93;;
3916;SDS011;1973;50.518;7.318;2022-08-05T08:08:15;17.30;;;15.70;;
3916;SDS011;1973;50.518;7.318;2022-08-05T08:10:45;18.00;;;16.10;;
3916;SDS011;1973;50.518;7.318;2022-08-05T08:13:14;20.60;;;15.93;;
3916;SDS011;1973;50.518;7.318;2022-08-05T08:15:47;19.33;;;17.27;;
3916;SDS011;1973;50.518;7.318;2022-08-05T08:18:33;22.07;;;18.80;;
3916;SDS011;1973;50.518;7.318;2022-08-05T08:21:02;24.10;;;19.77;;
3916;SDS011;1973;50.518;7.318;2022-08-05T08:23:41;20.90;;;18.70;;
3916;SDS011;1973;50.518;7.318;2022-08-05T08:26:27;23.53;;;21.20;;
3916;SDS011;1973;50.518;7.318;2022-08-05T08:28:55;27.80;;;25.20;;
3916;SDS011;1973;50.518;7.318;2022-08-05T08:31:42;26.20;;;23.60;;
3916;SDS011;1973;50.518;7.318;2022-08-05T08:34:08;27.67;;;24.77;;
3916;SDS011;1973;50.518;7.318;2022-08-05T08:36:35;26.10;;;23.87;;
3916;SDS011;1973;50.518;7.318;2022-08-05T08:39:17;28.90;;;26.30;;
3916;SDS011;1973;50.518;7.318;2022-08-05T08:41:46;29.17;;;26.27;;
3916;SDS011;1973;50.518;7.318;2022-08-05T08:44:24;28.53;;;25.83;;
3916;SDS011;1973;50.518;7.318;2022-08-05T08:47:13;29.10;;;26.27;;
3916;SDS011;1973;50.518;7.318;2022-08-05T08:50:01;26.80;;;24.03;;
3916;SDS011;1973;50.518;7.318;2022-08-05T08:52:51;26.63;;;24.27;;
3916;SDS011;1973;50.518;7.318;2022-08-05T08:55:20;27.43;;;24.87;;
3916;SDS011;1973;50.518;7.318;2022-08-05T08:58:08;30.30;;;27.40;;
3916;SDS011;1973;50.518;7.318;2022-08-05T09:00:38;27.80;;;25.20;;
3916;SDS011;1973;50.518;7.318;2022-08-05T09:03:06;28.07;;;25.50;;
3916;SDS011;1973;50.518;7.318;2022-08-05T09:05:34;28.07;;;25.63;;
3916;SDS011;1973;50.518;7.318;2022-08-05T09:08:21;26.37;;;24.07;;
3916;SDS011;1973;50.518;7.318;2022-08-05T09:10:55;27.57;;;24.90;;
3916;SDS011;1973;50.518;7.318;2022-08-05T09:13:21;24.60;;;22.30;;
3916;SDS011;1973;50.518;7.318;2022-08-05T09:15:49;24.70;;;22.40;;
3916;SDS011;1973;50.518;7.318;2022-08-05T09:18:16;24.93;;;22.60;;
3916;SDS011;1973;50.518;7.318;2022-08-05T09:20:43;24.30;;;22.10;;
3916;SDS011;1973;50.518;7.318;2022-08-05T09:25:50;24.27;;;22.10;;
3916;SDS011;1973;50.518;7.318;2022-08-05T09:28:32;23.47;;;21.27;;
3916;SDS011;1973;50.518;7.318;2022-08-05T09:31:02;22.33;;;20.43;;
3916;SDS011;1973;50.518;7.318;2022-08-05T09:33:54;22.67;;;20.47;;
3916;SDS011;1973;50.518;7.318;2022-08-05T09:39:20;22.03;;;19.60;;
3916;SDS011;1973;50.518;7.318;2022-08-05T09:41:54;21.63;;;19.47;;
3916;SDS011;1973;50.518;7.318;2022-08-05T09:44:39;21.87;;;19.77;;
3916;SDS011;1973;50.518;7.318;2022-08-05T09:47:11;22.53;;;20.30;;
3916;SDS011;1973;50.518;7.318;2022-08-05T09:49:42;22.27;;;20.13;;
3916;SDS011;1973;50.518;7.318;2022-08-05T09:52:28;21.53;;;19.50;;
3916;SDS011;1973;50.518;7.318;2022-08-05T09:57:46;21.40;;;19.30;;
3916;SDS011;1973;50.518;7.318;2022-08-05T10:02:44;21.37;;;19.33;;
3916;SDS011;1973;50.518;7.318;2022-08-05T10:05:18;23.90;;;21.30;;
3916;SDS011;1973;50.518;7.318;2022-08-05T10:08:25;20.40;;;18.20;;
3916;SDS011;1973;50.518;7.318;2022-08-05T10:11:04;20.87;;;18.73;;
3916;SDS011;1973;50.518;7.318;2022-08-05T10:13:39;21.87;;;19.57;;
3916;SDS011;1973;50.518;7.318;2022-08-05T10:16:32;21.00;;;18.80;;
3916;SDS011;1973;50.518;7.318;2022-08-05T10:19:17;21.03;;;18.73;;
3916;SDS011;1973;50.518;7.318;2022-08-05T10:22:05;21.60;;;18.50;;
3916;SDS011;1973;50.518;7.318;2022-08-05T10:24:40;21.73;;;16.60;;
3916;SDS011;1973;50.518;7.318;2022-08-05T10:27:11;18.50;;;16.10;;
3916;SDS011;1973;50.518;7.318;2022-08-05T10:29:41;22.73;;;18.40;;
3916;SDS011;1973;50.518;7.318;2022-08-05T10:32:28;17.97;;;16.00;;
3916;SDS011;1973;50.518;7.318;2022-08-05T10:35:16;18.67;;;15.90;;
3916;SDS011;1973;50.518;7.318;2022-08-05T10:37:43;19.03;;;17.07;;
3916;SDS011;1973;50.518;7.318;2022-08-05T10:46:05;16.03;;;14.27;;
3916;SDS011;1973;50.518;7.318;2022-08-05T10:48:34;19.07;;;17.17;;
3916;SDS011;1973;50.518;7.318;2022-08-05T10:51:21;26.57;;;23.77;;
3916;SDS011;1973;50.518;7.318;2022-08-05T10:53:55;31.47;;;28.20;;
3916;SDS011;1973;50.518;7.318;2022-08-05T10:56:28;31.17;;;27.77;;
3916;SDS011;1973;50.518;7.318;2022-08-05T10:59:04;35.73;;;32.17;;
3916;SDS011;1973;50.518;7.318;2022-08-05T11:02:08;36.50;;;32.67;;
3916;SDS011;1973;50.518;7.318;2022-08-05T11:04:56;42.20;;;38.03;;
3916;SDS011;1973;50.518;7.318;2022-08-05T11:07:23;46.83;;;42.07;;
3916;SDS011;1973;50.518;7.318;2022-08-05T11:10:19;47.43;;;42.43;;
3916;SDS011;1973;50.518;7.318;2022-08-05T11:12:53;43.00;;;38.77;;
3916;SDS011;1973;50.518;7.318;2022-08-05T11:15:22;47.27;;;42.27;;
3916;SDS011;1973;50.518;7.318;2022-08-05T11:18:27;45.93;;;41.17;;
3916;SDS011;1973;50.518;7.318;2022-08-05T11:20:59;50.97;;;45.43;;
3916;SDS011;1973;50.518;7.318;2022-08-05T11:26:31;71.83;;;61.70;;
3916;SDS011;1973;50.518;7.318;2022-08-05T11:29:02;72.03;;;64.50;;
3916;SDS011;1973;50.518;7.318;2022-08-05T11:31:37;67.53;;;60.13;;
3916;SDS011;1973;50.518;7.318;2022-08-05T11:34:33;65.83;;;58.63;;
3916;SDS011;1973;50.518;7.318;2022-08-05T11:37:04;72.23;;;62.23;;
3916;SDS011;1973;50.518;7.318;2022-08-05T11:39:52;63.50;;;56.67;;
3916;SDS011;1973;50.518;7.318;2022-08-05T11:42:28;62.50;;;55.80;;
3916;SDS011;1973;50.518;7.318;2022-08-05T11:45:03;56.23;;;50.37;;
3916;SDS011;1973;50.518;7.318;2022-08-05T11:47:48;52.17;;;46.60;;
3916;SDS011;1973;50.518;7.318;2022-08-05T11:50:20;49.60;;;44.40;;
3916;SDS011;1973;50.518;7.318;2022-08-05T11:52:46;48.30;;;43.50;;
3916;SDS011;1973;50.518;7.318;2022-08-05T11:55:15;44.20;;;39.63;;
3916;SDS011;1973;50.518;7.318;2022-08-05T11:57:45;37.73;;;34.07;;
3916;SDS011;1973;50.518;7.318;2022-08-05T12:00:32;32.87;;;30.03;;
3916;SDS011;1973;50.518;7.318;2022-08-05T12:03:19;31.17;;;28.47;;
3916;SDS011;1973;50.518;7.318;2022-08-05T12:05:58;29.30;;;26.47;;
3916;SDS011;1973;50.518;7.318;2022-08-05T12:08:31;27.90;;;25.30;;
3916;SDS011;1973;50.518;7.318;2022-08-05T12:10:59;22.37;;;20.47;;
3916;SDS011;1973;50.518;7.318;2022-08-05T12:13:31;20.83;;;18.83;;
3916;SDS011;1973;50.518;7.318;2022-08-05T12:16:16;19.37;;;17.60;;
3916;SDS011;1973;50.518;7.318;2022-08-05T12:18:44;19.20;;;17.40;;
3916;SDS011;1973;50.518;7.318;2022-08-05T12:29:11;13.90;;;12.70;;
3916;SDS011;1973;50.518;7.318;2022-08-05T12:31:43;11.43;;;10.40;;
3916;SDS011;1973;50.518;7.318;2022-08-05T12:34:20;9.90;;;8.40;;
3916;SDS011;1973;50.518;7.318;2022-08-05T12:36:54;10.53;;;8.40;;
3916;SDS011;1973;50.518;7.318;2022-08-05T12:39:22;8.10;;;7.30;;
3916;SDS011;1973;50.518;7.318;2022-08-05T12:41:59;7.97;;;7.27;;
3916;SDS011;1973;50.518;7.318;2022-08-05T12:44:26;6.17;;;5.67;;
3916;SDS011;1973;50.518;7.318;2022-08-05T12:46:59;5.30;;;4.80;;
3916;SDS011;1973;50.518;7.318;2022-08-05T12:49:37;5.50;;;4.90;;
3916;SDS011;1973;50.518;7.318;2022-08-05T12:52:31;5.50;;;4.63;;
3916;SDS011;1973;50.518;7.318;2022-08-05T12:55:23;4.90;;;4.30;;
3916;SDS011;1973;50.518;7.318;2022-08-05T12:57:54;6.77;;;4.47;;
3916;SDS011;1973;50.518;7.318;2022-08-05T13:00:42;4.70;;;4.30;;
3916;SDS011;1973;50.518;7.318;2022-08-05T13:03:33;5.83;;;4.37;;
3916;SDS011;1973;50.518;7.318;2022-08-05T13:06:11;4.70;;;4.10;;
3916;SDS011;1973;50.518;7.318;2022-08-05T13:08:38;4.70;;;4.30;;
3916;SDS011;1973;50.518;7.318;2022-08-05T13:11:05;4.33;;;3.83;;
3916;SDS011;1973;50.518;7.318;2022-08-05T13:13:36;4.17;;;3.77;;
3916;SDS011;1973;50.518;7.318;2022-08-05T13:16:24;5.87;;;4.40;;
3916;SDS011;1973;50.518;7.318;2022-08-05T13:18:53;5.00;;;3.90;;
3916;SDS011;1973;50.518;7.318;2022-08-05T13:21:24;3.40;;;3.10;;
3916;SDS011;1973;50.518;7.318;2022-08-05T13:23:53;9.20;;;4.13;;
3916;SDS011;1973;50.518;7.318;2022-08-05T13:26:20;4.70;;;3.90;;
3916;SDS011;1973;50.518;7.318;2022-08-05T13:28:55;4.67;;;4.07;;
3916;SDS011;1973;50.518;7.318;2022-08-05T13:31:22;4.67;;;4.17;;
3916;SDS011;1973;50.518;7.318;2022-08-05T13:34:08;4.50;;;4.10;;
3916;SDS011;1973;50.518;7.318;2022-08-05T13:36:50;7.70;;;5.70;;
3916;SDS011;1973;50.518;7.318;2022-08-05T13:39:17;5.00;;;4.60;;
3916;SDS011;1973;50.518;7.318;2022-08-05T13:42:04;7.13;;;5.37;;
3916;SDS011;1973;50.518;7.318;2022-08-05T13:44:31;7.40;;;5.00;;
3916;SDS011;1973;50.518;7.318;2022-08-05T13:46:59;5.27;;;4.30;;
3916;SDS011;1973;50.518;7.318;2022-08-05T13:49:33;6.83;;;5.17;;
3916;SDS011;1973;50.518;7.318;2022-08-05T13:52:10;4.40;;;4.00;;
3916;SDS011;1973;50.518;7.318;2022-08-05T13:54:41;5.60;;;4.80;;
3916;SDS011;1973;50.518;7.318;2022-08-05T13:57:18;5.57;;;4.80;;
3916;SDS011;1973;50.518;7.318;2022-08-05T13:59:46;4.70;;;4.20;;
3916;SDS011;1973;50.518;7.318;2022-08-05T14:02:22;5.10;;;3.57;;
3916;SDS011;1973;50.518;7.318;2022-08-05T14:04:55;4.73;;;3.90;;
3916;SDS011;1973;50.518;7.318;2022-08-05T14:07:41;4.93;;;3.27;;
3916;SDS011;1973;50.518;7.318;2022-08-05T14:10:28;5.97;;;2.90;;
3916;SDS011;1973;50.518;7.318;2022-08-05T14:12:56;3.10;;;2.60;;
3916;SDS011;1973;50.518;7.318;2022-08-05T14:15:23;3.70;;;3.30;;
3916;SDS011;1973;50.518;7.318;2022-08-05T14:18:10;4.77;;;3.40;;
3916;SDS011;1973;50.518;7.318;2022-08-05T14:20:44;7.43;;;3.40;;
3916;SDS011;1973;50.518;7.318;2022-08-05T14:23:12;3.90;;;2.77;;
3916;SDS011;1973;50.518;7.318;2022-08-05T14:25:49;4.10;;;2.47;;
3916;SDS011;1973;50.518;7.318;2022-08-05T14:28:19;6.50;;;2.13;;
3916;SDS011;1973;50.518;7.318;2022-08-05T14:30:53;5.10;;;2.80;;
3916;SDS011;1973;50.518;7.318;2022-08-05T14:33:20;3.23;;;2.50;;
3916;SDS011;1973;50.518;7.318;2022-08-05T14:35:49;3.90;;;2.67;;
3916;SDS011;1973;50.518;7.318;2022-08-05T14:38:16;4.10;;;2.97;;
3916;SDS011;1973;50.518;7.318;2022-08-05T14:41:04;5.63;;;2.77;;
3916;SDS011;1973;50.518;7.318;2022-08-05T14:43:36;3.53;;;3.10;;
3916;SDS011;1973;50.518;7.318;2022-08-05T14:46:23;3.07;;;2.47;;
3916;SDS011;1973;50.518;7.318;2022-08-05T14:48:55;3.97;;;3.20;;
3916;SDS011;1973;50.518;7.318;2022-08-05T14:51:32;3.73;;;2.50;;
3916;SDS011;1973;50.518;7.318;2022-08-05T14:53:58;2.63;;;2.40;;
3916;SDS011;1973;50.518;7.318;2022-08-05T14:56:45;5.13;;;2.70;;
3916;SDS011;1973;50.518;7.318;2022-08-05T14:59:12;4.67;;;2.70;;
3916;SDS011;1973;50.518;7.318;2022-08-05T15:01:39;5.43;;;3.00;;
3916;SDS011;1973;50.518;7.318;2022-08-05T15:04:14;3.80;;;2.60;;
3916;SDS011;1973;50.518;7.318;2022-08-05T15:06:41;3.93;;;3.00;;
3916;SDS011;1973;50.518;7.318;2022-08-05T15:09:14;2.60;;;2.40;;
3916;SDS011;1973;50.518;7.318;2022-08-05T15:12:01;2.70;;;2.50;;
3916;SDS011;1973;50.518;7.318;2022-08-05T15:14:29;3.17;;;2.53;;
3916;SDS011;1973;50.518;7.318;2022-08-05T15:17:08;5.10;;;2.40;;
3916;SDS011;1973;50.518;7.318;2022-08-05T15:19:54;4.83;;;3.17;;
3916;SDS011;1973;50.518;7.318;2022-08-05T15:22:22;4.13;;;3.63;;
3916;SDS011;1973;50.518;7.318;2022-08-05T15:24:53;3.20;;;2.90;;
3916;SDS011;1973;50.518;7.318;2022-08-05T15:27:20;4.10;;;3.67;;
3916;SDS011;1973;50.518;7.318;2022-08-05T15:29:50;4.50;;;3.73;;
3916;SDS011;1973;50.518;7.318;2022-08-05T15:32:22;3.67;;;3.33;;
3916;SDS011;1973;50.518;7.318;2022-08-05T15:34:54;4.53;;;4.13;;
3916;SDS011;1973;50.518;7.318;2022-08-05T15:37:21;4.80;;;4.23;;
3916;SDS011;1973;50.518;7.318;2022-08-05T15:40:08;5.97;;;4.00;;
3916;SDS011;1973;50.518;7.318;2022-08-05T15:42:55;6.53;;;3.90;;
3916;SDS011;1973;50.518;7.318;2022-08-05T15:45:40;3.93;;;3.60;;
3916;SDS011;1973;50.518;7.318;2022-08-05T15:48:11;4.10;;;3.70;;
3916;SDS011;1973;50.518;7.318;2022-08-05T15:50:40;3.77;;;3.20;;
3916;SDS011;1973;50.518;7.318;2022-08-05T15:53:09;5.00;;;3.90;;
3916;SDS011;1973;50.518;7.318;2022-08-05T15:55:38;4.47;;;3.33;;
3916;SDS011;1973;50.518;7.318;2022-08-05T15:58:24;5.90;;;4.13;;
3916;SDS011;1973;50.518;7.318;2022-08-05T16:00:51;5.07;;;3.70;;
3916;SDS011;1973;50.518;7.318;2022-08-05T16:03:41;4.00;;;3.70;;
3916;SDS011;1973;50.518;7.318;2022-08-05T16:06:08;4.47;;;4.07;;
3916;SDS011;1973;50.518;7.318;2022-08-05T16:08:36;6.07;;;4.70;;
3916;SDS011;1973;50.518;7.318;2022-08-05T16:11:03;5.00;;;4.50;;
3916;SDS011;1973;50.518;7.318;2022-08-05T16:13:30;6.13;;;5.50;;
3916;SDS011;1973;50.518;7.318;2022-08-05T16:16:00;5.40;;;4.90;;
3916;SDS011;1973;50.518;7.318;2022-08-05T16:18:29;5.20;;;4.67;;
3916;SDS011;1973;50.518;7.318;2022-08-05T16:20:58;5.80;;;4.83;;
3916;SDS011;1973;50.518;7.318;2022-08-05T16:23:30;7.07;;;6.37;;
3916;SDS011;1973;50.518;7.318;2022-08-05T16:26:16;7.17;;;5.03;;